createdAt,value
2019-01-31T00:01:15.099Z,15.13
2019-01-31T00:04:45.415Z,15.47
2019-01-31T00:07:44.913Z,10.90
2019-01-31T00:10:54.446Z,12.37
2019-01-31T00:13:58.369Z,14.53
2019-01-31T00:17:05.457Z,13.23
2019-01-31T00:20:22.373Z,16.60
2019-01-31T00:23:31.817Z,12.00
2019-01-31T00:26:44.841Z,13.20
2019-01-31T00:29:38.788Z,17.47
2019-01-31T00:32:49.466Z,10.57
2019-01-31T00:35:57.429Z,15.83
2019-01-31T00:39:03.008Z,17.37
2019-01-31T00:42:11.373Z,17.47
2019-01-31T00:45:18.545Z,16.23
2019-01-31T00:48:27.555Z,19.77
2019-01-31T00:51:53.260Z,17.33
2019-01-31T00:55:04.175Z,14.77
2019-01-31T00:58:01.338Z,17.00
2019-01-31T01:00:46.481Z,17.67
2019-01-31T01:03:36.919Z,14.93
2019-01-31T01:06:30.886Z,17.07
2019-01-31T01:09:17.568Z,15.17
2019-01-31T01:12:06.115Z,17.80
2019-01-31T01:15:01.095Z,16.70
2019-01-31T01:17:39.322Z,19.20
2019-01-31T01:20:22.789Z,18.90
2019-01-31T01:23:23.324Z,19.83
2019-01-31T01:26:44.541Z,15.50
2019-01-31T01:29:29.611Z,15.40
2019-01-31T01:32:34.959Z,16.50
2019-01-31T01:35:45.600Z,18.27
2019-01-31T01:38:53.227Z,19.40
2019-01-31T01:41:46.900Z,17.60
2019-01-31T01:45:13.031Z,12.60
2019-01-31T01:48:14.183Z,15.37
2019-01-31T01:51:20.241Z,16.47
2019-01-31T01:54:36.134Z,17.73
2019-01-31T01:57:25.575Z,10.93
2019-01-31T02:00:13.811Z,12.13
2019-01-31T02:03:13.023Z,17.20
2019-01-31T02:06:00.277Z,15.00
2019-01-31T02:09:16.581Z,16.10
2019-01-31T02:12:29.300Z,12.33
2019-01-31T02:15:27.042Z,16.37
2019-01-31T02:18:09.984Z,10.93
2019-01-31T02:21:30.078Z,12.90
2019-01-31T02:24:28.848Z,12.43
2019-01-31T02:27:16.859Z,12.67
2019-01-31T02:30:25.020Z,12.87
2019-01-31T02:33:35.157Z,13.10
2019-01-31T02:36:43.902Z,11.60
2019-01-31T02:39:55.424Z,18.20
2019-01-31T02:43:21.935Z,18.57
2019-01-31T02:46:39.569Z,15.70
2019-01-31T02:50:06.215Z,16.70
2019-01-31T02:53:07.002Z,17.23
2019-01-31T02:55:54.243Z,14.37
2019-01-31T02:58:46.308Z,20.67
2019-01-31T03:01:39.540Z,26.57
2019-01-31T03:04:44.095Z,19.33
2019-01-31T03:07:37.964Z,12.37
2019-01-31T03:10:34.871Z,13.67
2019-01-31T03:13:41.875Z,19.87
2019-01-31T03:16:58.619Z,13.90
2019-01-31T03:19:56.353Z,17.77
2019-01-31T03:22:50.131Z,18.90
2019-01-31T03:26:01.658Z,21.23
2019-01-31T03:29:12.423Z,15.90
2019-01-31T03:32:16.711Z,15.00
2019-01-31T03:35:10.999Z,12.77
2019-01-31T03:37:59.859Z,14.60
2019-01-31T03:40:46.054Z,14.70
2019-01-31T03:44:00.137Z,15.63
2019-01-31T03:47:00.364Z,11.90
2019-01-31T03:50:12.338Z,13.10
2019-01-31T03:53:29.887Z,15.70
2019-01-31T03:56:43.945Z,18.20
2019-01-31T03:59:18.539Z,16.00
2019-01-31T04:02:20.096Z,14.70
2019-01-31T04:05:26.680Z,22.43
2019-01-31T04:07:57.134Z,18.40
2019-01-31T04:10:27.557Z,14.87
2019-01-31T04:12:58.027Z,20.87
2019-01-31T04:15:28.513Z,15.03
2019-01-31T04:17:59.146Z,22.17
2019-01-31T04:20:29.595Z,19.07
2019-01-31T04:23:00.101Z,18.57
2019-01-31T04:25:30.527Z,18.53
2019-01-31T04:28:00.956Z,14.57
2019-01-31T04:30:31.386Z,13.30
2019-01-31T04:33:01.840Z,23.43
2019-01-31T04:35:32.442Z,17.67
2019-01-31T04:38:02.868Z,14.57
2019-01-31T04:40:33.296Z,18.10
2019-01-31T04:43:03.880Z,21.27
2019-01-31T04:45:34.422Z,15.87
2019-01-31T04:48:04.945Z,14.57
2019-01-31T04:50:35.414Z,22.00
2019-01-31T04:53:06.865Z,21.93
2019-01-31T04:55:37.289Z,27.63
2019-01-31T04:58:07.720Z,26.23
2019-01-31T05:00:38.247Z,26.50
2019-01-31T05:03:08.698Z,27.30
2019-01-31T05:05:39.203Z,23.13
2019-01-31T05:08:09.663Z,30.50
2019-01-31T05:10:43.203Z,20.63
2019-01-31T05:13:13.155Z,26.63
2019-01-31T05:15:43.647Z,27.57
2019-01-31T05:18:14.206Z,34.40
2019-01-31T05:20:44.631Z,24.73
2019-01-31T05:23:16.092Z,27.60
2019-01-31T05:25:46.514Z,28.07
2019-01-31T05:28:16.947Z,30.30
2019-01-31T05:30:47.363Z,33.10
2019-01-31T05:33:18.824Z,37.67
2019-01-31T05:35:49.291Z,35.20
2019-01-31T05:38:19.776Z,38.03
2019-01-31T05:40:55.733Z,34.30
2019-01-31T05:43:23.392Z,38.50
2019-01-31T05:45:53.863Z,37.00
2019-01-31T05:48:24.510Z,40.30
2019-01-31T05:50:55.228Z,38.30
2019-01-31T05:53:25.771Z,47.20
2019-01-31T05:55:56.242Z,47.33
2019-01-31T05:58:26.669Z,52.50
2019-01-31T06:00:57.098Z,51.30
2019-01-31T06:03:27.523Z,51.67
2019-01-31T06:05:57.976Z,51.27
2019-01-31T06:08:28.379Z,52.17
2019-01-31T06:11:07.238Z,56.33
2019-01-31T06:13:30.976Z,57.07
2019-01-31T06:16:01.399Z,63.37
2019-01-31T06:18:31.833Z,76.43
2019-01-31T06:21:02.298Z,65.90
2019-01-31T06:23:32.802Z,63.63
2019-01-31T06:26:03.211Z,69.33
2019-01-31T06:28:33.814Z,70.57
2019-01-31T06:31:04.448Z,68.07
2019-01-31T06:33:34.954Z,79.53
2019-01-31T06:36:06.199Z,73.80
2019-01-31T06:38:36.675Z,82.20
2019-01-31T06:41:17.974Z,106.63
2019-01-31T06:43:39.379Z,114.10
2019-01-31T06:46:09.846Z,94.23
2019-01-31T06:48:40.440Z,92.57
2019-01-31T06:51:11.473Z,94.73
2019-01-31T06:53:41.911Z,106.57
2019-01-31T06:56:12.608Z,89.63
2019-01-31T06:58:43.073Z,109.30
2019-01-31T07:01:13.749Z,109.87
2019-01-31T07:03:44.312Z,110.13
2019-01-31T07:06:14.827Z,111.53
2019-01-31T07:08:45.289Z,107.93
2019-01-31T07:11:15.725Z,117.73
2019-01-31T07:13:46.264Z,110.43
2019-01-31T07:16:16.869Z,122.37
2019-01-31T07:18:47.295Z,125.10
2019-01-31T07:21:17.928Z,123.60
2019-01-31T07:23:48.410Z,121.43
2019-01-31T07:26:18.885Z,126.90
2019-01-31T07:28:49.312Z,123.87
2019-01-31T07:31:19.651Z,115.13
2019-01-31T07:33:50.188Z,116.73
2019-01-31T07:36:20.739Z,101.17
2019-01-31T07:38:51.256Z,106.67
2019-01-31T07:41:21.753Z,99.23
2019-01-31T07:43:53.204Z,115.20
2019-01-31T07:46:23.806Z,93.67
2019-01-31T07:48:55.493Z,91.97
2019-01-31T07:51:26.404Z,98.27
2019-01-31T07:53:57.950Z,91.50
2019-01-31T07:56:28.768Z,93.00
2019-01-31T07:58:59.677Z,87.77
2019-01-31T08:01:30.415Z,81.10
2019-01-31T08:04:02.496Z,76.57
2019-01-31T08:06:34.877Z,83.57
2019-01-31T08:09:08.298Z,69.30
2019-01-31T08:11:38.756Z,62.73
2019-01-31T08:14:10.411Z,66.07
2019-01-31T08:16:40.839Z,66.20
2019-01-31T08:19:11.392Z,63.73
2019-01-31T08:21:41.811Z,59.97
2019-01-31T08:24:12.501Z,62.57
2019-01-31T08:26:43.002Z,52.73
2019-01-31T08:29:13.500Z,51.97
2019-01-31T08:31:43.911Z,42.47
2019-01-31T08:34:14.339Z,45.43
2019-01-31T08:36:44.767Z,40.77
2019-01-31T08:39:15.194Z,40.63
2019-01-31T08:41:45.627Z,40.07
2019-01-31T08:44:16.156Z,40.93
2019-01-31T08:46:46.804Z,49.17
2019-01-31T08:49:17.413Z,44.93
2019-01-31T08:51:47.959Z,42.77
2019-01-31T08:54:18.668Z,42.40
2019-01-31T08:56:49.326Z,45.97
2019-01-31T08:59:19.738Z,41.13
2019-01-31T09:01:50.779Z,36.63
2019-01-31T09:04:22.235Z,37.10
2019-01-31T09:06:52.655Z,36.57
2019-01-31T09:09:23.199Z,36.07
2019-01-31T09:11:53.616Z,34.90
2019-01-31T09:14:24.038Z,37.23
2019-01-31T09:16:54.566Z,31.10
2019-01-31T09:19:25.047Z,33.37
2019-01-31T09:22:05.507Z,32.00
2019-01-31T09:25:34.969Z,31.20
2019-01-31T09:28:42.103Z,29.83
2019-01-31T09:31:44.643Z,25.07
2019-01-31T09:34:36.885Z,33.00
2019-01-31T09:37:37.071Z,27.37
2019-01-31T09:40:41.739Z,29.17
2019-01-31T09:43:57.828Z,28.40
2019-01-31T09:47:03.143Z,31.33
2019-01-31T09:50:02.380Z,31.57
2019-01-31T09:53:05.367Z,26.67
2019-01-31T09:56:04.558Z,30.93
2019-01-31T09:58:57.216Z,29.43
2019-01-31T10:01:55.907Z,35.60
2019-01-31T10:05:00.023Z,28.23
2019-01-31T10:07:56.049Z,26.67
2019-01-31T10:10:56.408Z,31.60
2019-01-31T10:13:57.315Z,31.00
2019-01-31T10:17:09.399Z,38.07
2019-01-31T10:20:20.313Z,35.17
2019-01-31T10:23:08.894Z,29.80
2019-01-31T10:26:00.762Z,28.73
2019-01-31T10:29:14.015Z,24.53
2019-01-31T10:32:10.252Z,23.50
2019-01-31T10:34:59.690Z,26.27
2019-01-31T10:37:59.805Z,24.73
2019-01-31T10:41:04.232Z,27.60
2019-01-31T10:44:11.332Z,26.07
2019-01-31T10:47:19.554Z,21.00
2019-01-31T10:50:36.482Z,21.67
2019-01-31T10:53:46.098Z,20.97
2019-01-31T10:56:31.683Z,25.13
2019-01-31T10:59:27.605Z,21.43
2019-01-31T11:02:38.103Z,19.43
2019-01-31T11:05:41.168Z,21.17
2019-01-31T11:09:00.675Z,22.83
2019-01-31T11:11:41.206Z,25.17
2019-01-31T11:14:56.310Z,30.13
2019-01-31T11:17:56.733Z,25.67
2019-01-31T11:21:04.819Z,26.60
2019-01-31T11:23:49.462Z,27.73
2019-01-31T11:26:36.629Z,26.13
2019-01-31T11:29:32.850Z,25.60
2019-01-31T11:32:24.739Z,26.63
2019-01-31T11:35:17.677Z,26.27
2019-01-31T11:38:32.180Z,29.70
2019-01-31T11:42:01.424Z,28.20
2019-01-31T11:45:01.022Z,25.47
2019-01-31T11:48:14.359Z,25.70
2019-01-31T11:51:14.694Z,23.93
2019-01-31T11:54:09.554Z,24.40
2019-01-31T11:57:15.445Z,26.40
2019-01-31T11:59:45.880Z,24.03
2019-01-31T12:02:17.660Z,22.93
2019-01-31T12:04:48.157Z,23.60
2019-01-31T12:07:18.995Z,21.90
2019-01-31T12:09:49.422Z,19.47
2019-01-31T12:12:19.951Z,22.47
2019-01-31T12:14:50.584Z,22.03
2019-01-31T12:17:21.012Z,22.13
2019-01-31T12:19:51.507Z,18.03
2019-01-31T12:22:21.965Z,20.03
2019-01-31T12:24:52.512Z,18.83
2019-01-31T12:27:23.031Z,23.10
2019-01-31T12:29:53.484Z,22.83
2019-01-31T12:32:24.280Z,20.60
2019-01-31T12:34:54.818Z,14.77
2019-01-31T12:37:25.347Z,16.87
2019-01-31T12:39:55.833Z,15.90
2019-01-31T12:42:26.374Z,15.03
2019-01-31T12:44:58.191Z,17.87
2019-01-31T12:47:28.617Z,15.23
2019-01-31T12:49:59.086Z,16.60
2019-01-31T12:52:29.765Z,18.17
2019-01-31T12:55:00.356Z,13.27
2019-01-31T12:57:30.810Z,14.00
2019-01-31T13:00:01.274Z,10.90
2019-01-31T13:02:31.740Z,12.23
2019-01-31T13:05:03.319Z,10.13
2019-01-31T13:07:33.627Z,9.43
2019-01-31T13:10:03.866Z,13.60
2019-01-31T13:12:34.407Z,11.93
2019-01-31T13:15:05.503Z,17.23
2019-01-31T13:17:36.179Z,10.50
2019-01-31T13:20:10.676Z,13.13
2019-01-31T13:22:42.251Z,11.60
2019-01-31T13:25:13.990Z,13.93
2019-01-31T13:27:44.526Z,7.07
2019-01-31T13:30:18.039Z,17.87
2019-01-31T13:32:48.667Z,9.40
2019-01-31T13:35:19.299Z,12.97
2019-01-31T13:37:49.742Z,16.03
2019-01-31T13:40:29.541Z,10.33
2019-01-31T13:43:00.455Z,8.67
2019-01-31T13:45:33.501Z,10.17
2019-01-31T13:48:09.559Z,10.63
2019-01-31T13:50:40.340Z,15.00
2019-01-31T13:53:11.667Z,8.97
2019-01-31T13:55:42.482Z,10.13
2019-01-31T13:58:13.180Z,11.00
2019-01-31T14:00:43.945Z,7.50
2019-01-31T14:03:14.378Z,8.90
2019-01-31T14:05:44.809Z,12.00
2019-01-31T14:08:20.451Z,7.37
2019-01-31T14:10:50.968Z,7.40
2019-01-31T14:13:21.527Z,9.57
2019-01-31T14:15:53.884Z,10.37
2019-01-31T14:18:24.206Z,7.37
2019-01-31T14:20:54.702Z,9.97
2019-01-31T14:23:25.295Z,10.80
2019-01-31T14:25:55.964Z,10.03
2019-01-31T14:28:26.461Z,8.60
2019-01-31T14:30:57.161Z,7.90
2019-01-31T14:33:28.627Z,10.10
2019-01-31T14:36:03.089Z,7.13
2019-01-31T14:38:33.730Z,8.30
2019-01-31T14:41:04.203Z,9.37
2019-01-31T14:43:34.814Z,7.73
2019-01-31T14:46:22.569Z,6.60
2019-01-31T14:48:52.992Z,6.87
2019-01-31T14:51:23.606Z,6.77
2019-01-31T14:53:59.729Z,6.80
2019-01-31T14:56:30.215Z,6.00
2019-01-31T14:59:00.623Z,7.10
2019-01-31T15:01:31.315Z,9.57
2019-01-31T15:04:01.802Z,9.30
2019-01-31T15:06:32.350Z,9.57
2019-01-31T15:09:02.851Z,7.47
2019-01-31T15:11:33.278Z,7.37
2019-01-31T15:14:03.859Z,7.50
2019-01-31T15:16:34.342Z,10.53
2019-01-31T15:19:04.832Z,11.30
2019-01-31T15:21:35.299Z,11.37
2019-01-31T15:24:06.029Z,7.53
2019-01-31T15:26:36.456Z,6.73
2019-01-31T15:29:08.603Z,10.20
2019-01-31T15:31:39.039Z,8.60
2019-01-31T15:34:09.545Z,6.80
2019-01-31T15:36:40.039Z,8.43
2019-01-31T15:39:11.156Z,7.33
2019-01-31T15:42:03.353Z,4.97
2019-01-31T15:44:43.004Z,5.40
2019-01-31T15:47:06.293Z,5.17
2019-01-31T15:49:36.990Z,5.27
2019-01-31T15:52:07.806Z,3.93
2019-01-31T15:54:38.436Z,5.70
2019-01-31T15:57:16.742Z,3.57
2019-01-31T15:59:47.539Z,3.53
2019-01-31T16:02:19.159Z,4.90
2019-01-31T16:04:49.663Z,4.10
2019-01-31T16:07:20.324Z,8.17
2019-01-31T16:09:51.064Z,7.67
2019-01-31T16:12:21.563Z,5.47
2019-01-31T16:14:54.855Z,3.60
2019-01-31T16:17:24.418Z,6.30
2019-01-31T16:19:55.051Z,9.27
2019-01-31T16:22:25.485Z,4.47
2019-01-31T16:24:56.009Z,9.60
2019-01-31T16:27:26.435Z,6.07
2019-01-31T16:29:57.642Z,4.40
2019-01-31T16:32:28.199Z,5.47
2019-01-31T16:34:58.842Z,5.97
2019-01-31T16:37:29.439Z,5.87
2019-01-31T16:39:59.900Z,8.73
2019-01-31T16:42:30.327Z,6.00
2019-01-31T16:45:06.674Z,7.27
2019-01-31T16:47:32.904Z,13.47
2019-01-31T16:50:03.360Z,11.87
2019-01-31T16:52:34.879Z,11.30
2019-01-31T16:55:06.224Z,16.37
2019-01-31T16:57:36.767Z,14.27
2019-01-31T17:00:08.795Z,11.17
2019-01-31T17:02:39.272Z,11.13
2019-01-31T17:05:11.852Z,12.10
2019-01-31T17:07:42.450Z,11.03
2019-01-31T17:10:13.295Z,14.87
2019-01-31T17:13:13.062Z,17.40
2019-01-31T17:15:46.351Z,6.43
2019-01-31T17:18:18.207Z,17.00
2019-01-31T17:20:48.829Z,12.20
2019-01-31T17:24:12.391Z,16.13
2019-01-31T17:26:42.905Z,12.83
2019-01-31T17:29:14.451Z,18.10
2019-01-31T17:31:45.156Z,10.40
2019-01-31T17:34:15.738Z,15.23
2019-01-31T17:36:46.267Z,20.17
2019-01-31T17:39:16.789Z,13.20
2019-01-31T17:41:47.252Z,16.10
2019-01-31T17:44:17.760Z,21.40
2019-01-31T17:46:48.180Z,19.33
2019-01-31T17:49:20.011Z,19.60
2019-01-31T17:51:53.584Z,18.40
2019-01-31T17:54:24.112Z,19.30
2019-01-31T17:56:54.599Z,14.67
2019-01-31T17:59:25.351Z,16.77
2019-01-31T18:01:55.871Z,17.73
2019-01-31T18:04:26.289Z,14.60
2019-01-31T18:07:06.797Z,23.97
2019-01-31T18:09:37.286Z,16.57
2019-01-31T18:12:07.783Z,16.10
2019-01-31T18:14:38.240Z,20.17
2019-01-31T18:17:08.667Z,20.93
2019-01-31T18:19:39.167Z,12.00
2019-01-31T18:23:00.616Z,16.27
2019-01-31T18:25:37.671Z,13.50
2019-01-31T18:28:08.228Z,17.53
2019-01-31T18:30:38.812Z,18.87
2019-01-31T18:33:09.291Z,20.97
2019-01-31T18:35:39.713Z,17.83
2019-01-31T18:38:10.141Z,15.10
2019-01-31T18:40:40.688Z,16.87
2019-01-31T18:43:11.207Z,18.43
2019-01-31T18:45:52.659Z,22.67
2019-01-31T18:48:13.869Z,14.53
2019-01-31T18:50:44.789Z,23.33
2019-01-31T18:53:15.467Z,11.40
2019-01-31T18:55:45.996Z,18.10
2019-01-31T18:58:16.526Z,15.20
2019-01-31T19:00:49.046Z,13.53
2019-01-31T19:03:19.555Z,11.97
2019-01-31T19:05:50.473Z,12.43
2019-01-31T19:08:20.928Z,20.43
2019-01-31T19:10:51.426Z,13.30
2019-01-31T19:13:21.955Z,16.33
2019-01-31T19:16:03.727Z,13.20
2019-01-31T19:18:24.796Z,15.33
2019-01-31T19:20:55.283Z,15.60
2019-01-31T19:23:26.886Z,12.83
2019-01-31T19:25:57.471Z,14.07
2019-01-31T19:28:27.898Z,12.80
2019-01-31T19:30:58.653Z,16.00
2019-01-31T19:33:30.128Z,10.10
2019-01-31T19:36:00.660Z,11.10
2019-01-31T19:38:31.160Z,13.17
2019-01-31T19:41:01.691Z,8.53
2019-01-31T19:43:32.282Z,12.40
2019-01-31T19:46:02.729Z,13.17
2019-01-31T19:48:33.463Z,17.70
2019-01-31T19:51:03.896Z,12.90
2019-01-31T19:53:34.423Z,9.33
2019-01-31T19:56:05.224Z,18.43
2019-01-31T19:58:35.689Z,16.57
2019-01-31T20:01:06.554Z,16.53
2019-01-31T20:03:43.161Z,10.13
2019-01-31T20:06:13.619Z,10.37
2019-01-31T20:08:44.149Z,14.37
2019-01-31T20:11:14.743Z,8.80
2019-01-31T20:13:45.206Z,9.10
2019-01-31T20:16:16.303Z,14.70
2019-01-31T20:18:47.975Z,8.73
2019-01-31T20:21:18.423Z,6.60
2019-01-31T20:23:49.168Z,12.10
2019-01-31T20:26:19.674Z,7.53
2019-01-31T20:28:53.268Z,13.37
2019-01-31T20:31:22.402Z,6.53
2019-01-31T20:33:53.199Z,5.90
2019-01-31T20:36:23.670Z,8.20
2019-01-31T20:38:54.292Z,4.27
2019-01-31T20:41:27.322Z,12.97
2019-01-31T20:43:56.986Z,10.83
2019-01-31T20:46:27.415Z,14.20
2019-01-31T20:48:57.946Z,12.50
2019-01-31T20:51:28.370Z,10.87
2019-01-31T20:53:59.071Z,11.27
2019-01-31T20:56:29.587Z,7.17
2019-01-31T20:59:03.342Z,10.03
2019-01-31T21:01:33.974Z,7.53
2019-01-31T21:04:04.397Z,9.97
2019-01-31T21:06:41.297Z,10.53
2019-01-31T21:09:09.243Z,10.93
2019-01-31T21:11:39.727Z,11.33
2019-01-31T21:14:10.340Z,11.93
2019-01-31T21:16:51.838Z,10.20
2019-01-31T21:19:19.041Z,11.47
2019-01-31T21:21:50.328Z,7.83
2019-01-31T21:24:34.607Z,12.20
2019-01-31T21:27:11.519Z,6.93
2019-01-31T21:29:42.271Z,7.53
2019-01-31T21:32:12.995Z,8.70
2019-01-31T21:34:43.415Z,15.10
2019-01-31T21:37:28.902Z,10.93
2019-01-31T21:39:59.395Z,9.63
2019-01-31T21:42:29.855Z,12.17
2019-01-31T21:45:00.653Z,10.67
2019-01-31T21:47:31.123Z,5.27
2019-01-31T21:50:01.547Z,9.77
2019-01-31T21:52:32.077Z,5.87
2019-01-31T21:55:02.806Z,9.67
2019-01-31T21:57:33.491Z,8.33
2019-01-31T22:00:05.222Z,4.80
2019-01-31T22:02:35.725Z,10.60
2019-01-31T22:05:07.915Z,12.50
2019-01-31T22:07:38.317Z,9.53
2019-01-31T22:10:09.635Z,6.07
2019-01-31T22:12:40.301Z,7.10
2019-01-31T22:15:13.902Z,7.40
2019-01-31T22:17:44.330Z,5.70
2019-01-31T22:20:15.164Z,2.97
2019-01-31T22:22:45.908Z,2.77
2019-01-31T22:25:18.160Z,4.80
2019-01-31T22:27:48.607Z,8.27
2019-01-31T22:30:22.401Z,5.37
2019-01-31T22:32:54.132Z,7.67
2019-01-31T22:35:24.924Z,5.60
2019-01-31T22:37:56.211Z,7.03
2019-01-31T22:40:26.779Z,5.03
2019-01-31T22:42:58.433Z,2.53
2019-01-31T22:45:28.859Z,4.73
2019-01-31T22:47:59.281Z,6.63
2019-01-31T22:50:29.779Z,5.80
2019-01-31T22:53:00.699Z,8.33
2019-01-31T22:55:31.261Z,2.73
2019-01-31T22:58:01.753Z,5.33
2019-01-31T23:01:21.662Z,5.60
2019-01-31T23:03:52.522Z,6.97
2019-01-31T23:06:23.067Z,4.90
2019-01-31T23:08:53.590Z,5.77
2019-01-31T23:11:24.222Z,3.83
2019-01-31T23:13:55.947Z,4.83
2019-01-31T23:16:26.416Z,8.07
2019-01-31T23:18:56.879Z,7.73
2019-01-31T23:21:27.494Z,5.67
2019-01-31T23:23:58.000Z,7.20
2019-01-31T23:26:28.421Z,4.87
2019-01-31T23:28:59.053Z,6.13
2019-01-31T23:31:29.675Z,7.30
2019-01-31T23:34:00.289Z,8.13
2019-01-31T23:36:30.754Z,13.13
2019-01-31T23:39:02.794Z,9.73
2019-01-31T23:41:33.441Z,7.00
2019-01-31T23:44:03.870Z,15.70
2019-01-31T23:46:34.297Z,11.80
2019-01-31T23:49:05.183Z,15.17
2019-01-31T23:51:35.685Z,9.67
2019-01-31T23:54:06.809Z,8.87
2019-01-31T23:56:37.298Z,9.23
2019-01-31T23:59:08.122Z,12.23
